sensor_id;sensor_type;location;lat;lon;timestamp;P1;durP1;ratioP1;P2;durP2;ratioP2
22166;SDS011;11249;52.468;13.776;2022-09-03T00:01:02;4.82;;;2.25;;
22166;SDS011;11249;52.468;13.776;2022-09-03T00:03:46;3.85;;;1.75;;
22166;SDS011;11249;52.468;13.776;2022-09-03T00:06:22;5.47;;;2.10;;
22166;SDS011;11249;52.468;13.776;2022-09-03T00:08:57;4.18;;;2.10;;
22166;SDS011;11249;52.468;13.776;2022-09-03T00:11:32;3.28;;;1.75;;
22166;SDS011;11249;52.468;13.776;2022-09-03T00:14:08;4.13;;;1.92;;
22166;SDS011;11249;52.468;13.776;2022-09-03T00:16:42;3.53;;;1.80;;
22166;SDS011;11249;52.468;13.776;2022-09-03T00:19:45;2.08;;;1.42;;
22166;SDS011;11249;52.468;13.776;2022-09-03T00:22:22;3.20;;;1.60;;
22166;SDS011;11249;52.468;13.776;2022-09-03T00:24:53;1.85;;;1.60;;
22166;SDS011;11249;52.468;13.776;2022-09-03T00:27:26;3.65;;;1.85;;
22166;SDS011;11249;52.468;13.776;2022-09-03T00:29:56;3.05;;;1.52;;
22166;SDS011;11249;52.468;13.776;2022-09-03T00:32:28;4.10;;;1.92;;
22166;SDS011;11249;52.468;13.776;2022-09-03T00:35:05;3.20;;;1.45;;
22166;SDS011;11249;52.468;13.776;2022-09-03T00:37:39;2.67;;;1.50;;
22166;SDS011;11249;52.468;13.776;2022-09-03T00:40:10;3.65;;;1.58;;
22166;SDS011;11249;52.468;13.776;2022-09-03T00:42:54;1.83;;;1.40;;
22166;SDS011;11249;52.468;13.776;2022-09-03T00:45:56;5.00;;;1.50;;
22166;SDS011;11249;52.468;13.776;2022-09-03T00:48:55;2.20;;;1.55;;
22166;SDS011;11249;52.468;13.776;2022-09-03T00:54:35;3.00;;;1.45;;
22166;SDS011;11249;52.468;13.776;2022-09-03T00:57:22;2.13;;;1.40;;
22166;SDS011;11249;52.468;13.776;2022-09-03T01:00:07;2.83;;;1.73;;
22166;SDS011;11249;52.468;13.776;2022-09-03T01:05:31;2.22;;;1.38;;
22166;SDS011;11249;52.468;13.776;2022-09-03T01:10:54;2.65;;;1.30;;
22166;SDS011;11249;52.468;13.776;2022-09-03T01:16:26;3.17;;;1.30;;
22166;SDS011;11249;52.468;13.776;2022-09-03T01:24:56;1.80;;;1.17;;
22166;SDS011;11249;52.468;13.776;2022-09-03T01:27:43;2.72;;;1.63;;
22166;SDS011;11249;52.468;13.776;2022-09-03T01:30:18;3.00;;;1.67;;
22166;SDS011;11249;52.468;13.776;2022-09-03T01:35:53;2.60;;;1.38;;
22166;SDS011;11249;52.468;13.776;2022-09-03T01:38:42;2.63;;;1.65;;
22166;SDS011;11249;52.468;13.776;2022-09-03T01:44:30;1.58;;;1.33;;
22166;SDS011;11249;52.468;13.776;2022-09-03T01:47:24;2.92;;;1.45;;
22166;SDS011;11249;52.468;13.776;2022-09-03T01:50:19;2.33;;;1.70;;
22166;SDS011;11249;52.468;13.776;2022-09-03T01:53:16;2.95;;;1.60;;
22166;SDS011;11249;52.468;13.776;2022-09-03T01:55:50;2.40;;;1.50;;
22166;SDS011;11249;52.468;13.776;2022-09-03T01:58:59;3.28;;;1.73;;
22166;SDS011;11249;52.468;13.776;2022-09-03T02:01:32;3.03;;;1.48;;
22166;SDS011;11249;52.468;13.776;2022-09-03T02:04:12;3.40;;;1.60;;
22166;SDS011;11249;52.468;13.776;2022-09-03T02:06:46;1.92;;;1.52;;
22166;SDS011;11249;52.468;13.776;2022-09-03T02:09:14;2.63;;;1.80;;
22166;SDS011;11249;52.468;13.776;2022-09-03T02:11:43;3.58;;;1.70;;
22166;SDS011;11249;52.468;13.776;2022-09-03T02:14:16;7.18;;;1.73;;
22166;SDS011;11249;52.468;13.776;2022-09-03T02:16:43;4.57;;;1.77;;
22166;SDS011;11249;52.468;13.776;2022-09-03T02:19:11;2.05;;;1.60;;
22166;SDS011;11249;52.468;13.776;2022-09-03T02:21:43;3.92;;;2.05;;
22166;SDS011;11249;52.468;13.776;2022-09-03T02:24:15;1.95;;;1.60;;
22166;SDS011;11249;52.468;13.776;2022-09-03T02:26:42;4.68;;;1.73;;
22166;SDS011;11249;52.468;13.776;2022-09-03T02:29:09;1.80;;;1.58;;
22166;SDS011;11249;52.468;13.776;2022-09-03T02:31:36;2.72;;;1.77;;
22166;SDS011;11249;52.468;13.776;2022-09-03T02:34:03;3.72;;;1.90;;
22166;SDS011;11249;52.468;13.776;2022-09-03T02:36:31;4.43;;;2.00;;
22166;SDS011;11249;52.468;13.776;2022-09-03T02:39:00;3.63;;;1.88;;
22166;SDS011;11249;52.468;13.776;2022-09-03T02:41:27;5.82;;;1.90;;
22166;SDS011;11249;52.468;13.776;2022-09-03T02:43:55;5.43;;;1.95;;
22166;SDS011;11249;52.468;13.776;2022-09-03T02:46:32;4.63;;;1.70;;
22166;SDS011;11249;52.468;13.776;2022-09-03T02:49:09;3.65;;;2.38;;
22166;SDS011;11249;52.468;13.776;2022-09-03T02:51:37;1.95;;;1.73;;
22166;SDS011;11249;52.468;13.776;2022-09-03T02:54:07;4.28;;;2.00;;
22166;SDS011;11249;52.468;13.776;2022-09-03T02:56:36;4.20;;;1.95;;
22166;SDS011;11249;52.468;13.776;2022-09-03T02:59:03;4.05;;;2.00;;
22166;SDS011;11249;52.468;13.776;2022-09-03T03:01:31;3.95;;;2.38;;
22166;SDS011;11249;52.468;13.776;2022-09-03T03:03:58;3.50;;;1.80;;
22166;SDS011;11249;52.468;13.776;2022-09-03T03:06:25;8.57;;;2.13;;
22166;SDS011;11249;52.468;13.776;2022-09-03T03:08:52;3.45;;;2.13;;
22166;SDS011;11249;52.468;13.776;2022-09-03T03:11:21;4.57;;;2.38;;
22166;SDS011;11249;52.468;13.776;2022-09-03T03:13:50;5.50;;;2.20;;
22166;SDS011;11249;52.468;13.776;2022-09-03T03:16:20;5.60;;;2.80;;
22166;SDS011;11249;52.468;13.776;2022-09-03T03:18:47;3.70;;;2.30;;
22166;SDS011;11249;52.468;13.776;2022-09-03T03:21:14;5.18;;;2.60;;
22166;SDS011;11249;52.468;13.776;2022-09-03T03:23:42;3.90;;;2.65;;
22166;SDS011;11249;52.468;13.776;2022-09-03T03:26:11;4.47;;;2.22;;
22166;SDS011;11249;52.468;13.776;2022-09-03T03:28:39;4.95;;;2.63;;
22166;SDS011;11249;52.468;13.776;2022-09-03T03:31:11;5.07;;;2.40;;
22166;SDS011;11249;52.468;13.776;2022-09-03T03:33:40;4.82;;;2.10;;
22166;SDS011;11249;52.468;13.776;2022-09-03T03:36:11;4.57;;;2.33;;
22166;SDS011;11249;52.468;13.776;2022-09-03T03:38:40;4.35;;;2.22;;
22166;SDS011;11249;52.468;13.776;2022-09-03T03:43:42;2.38;;;2.00;;
22166;SDS011;11249;52.468;13.776;2022-09-03T03:46:10;5.43;;;2.97;;
22166;SDS011;11249;52.468;13.776;2022-09-03T03:48:37;5.90;;;2.33;;
22166;SDS011;11249;52.468;13.776;2022-09-03T03:51:05;5.10;;;2.55;;
22166;SDS011;11249;52.468;13.776;2022-09-03T03:53:35;3.00;;;2.28;;
22166;SDS011;11249;52.468;13.776;2022-09-03T03:56:04;6.35;;;2.72;;
22166;SDS011;11249;52.468;13.776;2022-09-03T03:58:32;3.63;;;2.43;;
22166;SDS011;11249;52.468;13.776;2022-09-03T04:01:03;3.97;;;2.58;;
22166;SDS011;11249;52.468;13.776;2022-09-03T04:03:35;5.13;;;2.88;;
22166;SDS011;11249;52.468;13.776;2022-09-03T04:06:03;7.10;;;2.50;;
22166;SDS011;11249;52.468;13.776;2022-09-03T04:08:34;5.78;;;3.00;;
22166;SDS011;11249;52.468;13.776;2022-09-03T04:11:04;5.90;;;2.85;;
22166;SDS011;11249;52.468;13.776;2022-09-03T04:13:33;6.03;;;3.08;;
22166;SDS011;11249;52.468;13.776;2022-09-03T04:16:11;5.47;;;2.78;;
22166;SDS011;11249;52.468;13.776;2022-09-03T04:18:45;3.58;;;2.78;;
22166;SDS011;11249;52.468;13.776;2022-09-03T04:21:15;5.00;;;2.80;;
22166;SDS011;11249;52.468;13.776;2022-09-03T04:23:45;3.00;;;2.67;;
22166;SDS011;11249;52.468;13.776;2022-09-03T04:26:13;5.20;;;2.50;;
22166;SDS011;11249;52.468;13.776;2022-09-03T04:28:42;4.20;;;2.47;;
22166;SDS011;11249;52.468;13.776;2022-09-03T04:31:12;3.45;;;2.58;;
22166;SDS011;11249;52.468;13.776;2022-09-03T04:33:40;3.92;;;2.78;;
22166;SDS011;11249;52.468;13.776;2022-09-03T04:36:08;9.05;;;2.78;;
22166;SDS011;11249;52.468;13.776;2022-09-03T04:38:38;6.20;;;2.85;;
22166;SDS011;11249;52.468;13.776;2022-09-03T04:41:07;6.20;;;3.13;;
22166;SDS011;11249;52.468;13.776;2022-09-03T04:43:35;6.15;;;2.80;;
22166;SDS011;11249;52.468;13.776;2022-09-03T04:46:03;3.97;;;2.42;;
22166;SDS011;11249;52.468;13.776;2022-09-03T04:48:32;4.22;;;2.55;;
22166;SDS011;11249;52.468;13.776;2022-09-03T04:51:04;4.78;;;2.35;;
22166;SDS011;11249;52.468;13.776;2022-09-03T04:53:33;5.15;;;2.80;;
22166;SDS011;11249;52.468;13.776;2022-09-03T04:56:01;5.53;;;2.60;;
22166;SDS011;11249;52.468;13.776;2022-09-03T04:58:28;4.07;;;2.63;;
22166;SDS011;11249;52.468;13.776;2022-09-03T05:00:54;7.13;;;3.40;;
22166;SDS011;11249;52.468;13.776;2022-09-03T05:03:21;7.00;;;2.72;;
22166;SDS011;11249;52.468;13.776;2022-09-03T05:05:52;5.95;;;2.80;;
22166;SDS011;11249;52.468;13.776;2022-09-03T05:08:20;3.88;;;2.70;;
22166;SDS011;11249;52.468;13.776;2022-09-03T05:10:47;5.05;;;2.92;;
22166;SDS011;11249;52.468;13.776;2022-09-03T05:13:20;4.78;;;2.45;;
22166;SDS011;11249;52.468;13.776;2022-09-03T05:15:46;5.43;;;3.38;;
22166;SDS011;11249;52.468;13.776;2022-09-03T05:18:13;3.63;;;2.67;;
22166;SDS011;11249;52.468;13.776;2022-09-03T05:20:40;4.07;;;2.50;;
22166;SDS011;11249;52.468;13.776;2022-09-03T05:23:06;4.18;;;2.70;;
22166;SDS011;11249;52.468;13.776;2022-09-03T05:25:33;4.28;;;2.78;;
22166;SDS011;11249;52.468;13.776;2022-09-03T05:28:00;4.93;;;2.40;;
22166;SDS011;11249;52.468;13.776;2022-09-03T05:30:27;3.72;;;2.60;;
22166;SDS011;11249;52.468;13.776;2022-09-03T05:32:53;4.15;;;2.78;;
22166;SDS011;11249;52.468;13.776;2022-09-03T05:35:21;4.63;;;2.47;;
22166;SDS011;11249;52.468;13.776;2022-09-03T05:37:53;3.15;;;2.28;;
22166;SDS011;11249;52.468;13.776;2022-09-03T05:40:21;5.95;;;3.05;;
22166;SDS011;11249;52.468;13.776;2022-09-03T05:42:52;4.32;;;2.67;;
22166;SDS011;11249;52.468;13.776;2022-09-03T05:45:22;6.65;;;3.08;;
22166;SDS011;11249;52.468;13.776;2022-09-03T05:47:49;4.50;;;3.03;;
22166;SDS011;11249;52.468;13.776;2022-09-03T05:50:17;4.38;;;2.65;;
22166;SDS011;11249;52.468;13.776;2022-09-03T05:52:44;6.28;;;2.92;;
22166;SDS011;11249;52.468;13.776;2022-09-03T05:55:10;4.47;;;2.90;;
22166;SDS011;11249;52.468;13.776;2022-09-03T05:57:40;4.72;;;2.70;;
22166;SDS011;11249;52.468;13.776;2022-09-03T06:00:08;3.58;;;2.28;;
22166;SDS011;11249;52.468;13.776;2022-09-03T06:02:35;4.75;;;2.50;;
22166;SDS011;11249;52.468;13.776;2022-09-03T06:05:02;3.00;;;2.30;;
22166;SDS011;11249;52.468;13.776;2022-09-03T06:07:29;3.45;;;2.55;;
22166;SDS011;11249;52.468;13.776;2022-09-03T06:09:57;3.35;;;2.40;;
22166;SDS011;11249;52.468;13.776;2022-09-03T06:12:24;4.40;;;2.20;;
22166;SDS011;11249;52.468;13.776;2022-09-03T06:14:50;5.22;;;2.78;;
22166;SDS011;11249;52.468;13.776;2022-09-03T06:17:17;4.43;;;2.15;;
22166;SDS011;11249;52.468;13.776;2022-09-03T06:19:44;5.28;;;2.10;;
22166;SDS011;11249;52.468;13.776;2022-09-03T06:22:11;5.03;;;2.03;;
22166;SDS011;11249;52.468;13.776;2022-09-03T06:24:37;4.80;;;2.33;;
22166;SDS011;11249;52.468;13.776;2022-09-03T06:27:04;5.68;;;2.20;;
22166;SDS011;11249;52.468;13.776;2022-09-03T06:29:31;9.32;;;2.53;;
22166;SDS011;11249;52.468;13.776;2022-09-03T06:32:00;5.18;;;2.08;;
22166;SDS011;11249;52.468;13.776;2022-09-03T06:34:29;6.30;;;2.47;;
22166;SDS011;11249;52.468;13.776;2022-09-03T06:36:56;4.07;;;2.10;;
22166;SDS011;11249;52.468;13.776;2022-09-03T06:39:24;3.53;;;1.90;;
22166;SDS011;11249;52.468;13.776;2022-09-03T06:41:52;3.20;;;2.20;;
22166;SDS011;11249;52.468;13.776;2022-09-03T06:44:20;5.00;;;2.13;;
22166;SDS011;11249;52.468;13.776;2022-09-03T06:46:46;2.78;;;2.10;;
22166;SDS011;11249;52.468;13.776;2022-09-03T06:49:13;6.38;;;2.33;;
22166;SDS011;11249;52.468;13.776;2022-09-03T06:51:40;3.10;;;2.05;;
22166;SDS011;11249;52.468;13.776;2022-09-03T06:54:09;3.13;;;1.90;;
22166;SDS011;11249;52.468;13.776;2022-09-03T06:56:38;2.90;;;1.98;;
22166;SDS011;11249;52.468;13.776;2022-09-03T06:59:07;4.18;;;1.90;;
22166;SDS011;11249;52.468;13.776;2022-09-03T07:01:36;5.10;;;2.10;;
22166;SDS011;11249;52.468;13.776;2022-09-03T07:04:10;5.50;;;2.50;;
22166;SDS011;11249;52.468;13.776;2022-09-03T07:06:38;3.20;;;2.38;;
22166;SDS011;11249;52.468;13.776;2022-09-03T07:09:06;4.38;;;2.10;;
22166;SDS011;11249;52.468;13.776;2022-09-03T07:11:34;6.00;;;2.25;;
22166;SDS011;11249;52.468;13.776;2022-09-03T07:14:02;3.72;;;2.20;;
22166;SDS011;11249;52.468;13.776;2022-09-03T07:16:34;3.67;;;1.65;;
22166;SDS011;11249;52.468;13.776;2022-09-03T07:19:03;4.95;;;2.70;;
22166;SDS011;11249;52.468;13.776;2022-09-03T07:21:32;7.15;;;2.88;;
22166;SDS011;11249;52.468;13.776;2022-09-03T07:24:02;5.05;;;2.10;;
22166;SDS011;11249;52.468;13.776;2022-09-03T07:26:34;3.45;;;1.90;;
22166;SDS011;11249;52.468;13.776;2022-09-03T07:29:04;3.45;;;2.15;;
22166;SDS011;11249;52.468;13.776;2022-09-03T07:31:34;4.57;;;2.33;;
22166;SDS011;11249;52.468;13.776;2022-09-03T07:34:10;3.17;;;1.90;;
22166;SDS011;11249;52.468;13.776;2022-09-03T07:36:39;5.32;;;2.10;;
22166;SDS011;11249;52.468;13.776;2022-09-03T07:39:08;4.38;;;2.13;;
22166;SDS011;11249;52.468;13.776;2022-09-03T07:41:37;4.25;;;2.22;;
22166;SDS011;11249;52.468;13.776;2022-09-03T07:44:04;7.30;;;2.00;;
22166;SDS011;11249;52.468;13.776;2022-09-03T07:46:34;3.25;;;1.83;;
22166;SDS011;11249;52.468;13.776;2022-09-03T07:49:02;4.43;;;2.05;;
22166;SDS011;11249;52.468;13.776;2022-09-03T07:51:32;7.47;;;2.40;;
22166;SDS011;11249;52.468;13.776;2022-09-03T07:54:01;6.07;;;1.98;;
22166;SDS011;11249;52.468;13.776;2022-09-03T07:56:32;3.67;;;2.10;;
22166;SDS011;11249;52.468;13.776;2022-09-03T07:59:03;5.68;;;2.20;;
22166;SDS011;11249;52.468;13.776;2022-09-03T08:01:31;1.88;;;1.67;;
22166;SDS011;11249;52.468;13.776;2022-09-03T08:03:59;3.97;;;1.70;;
22166;SDS011;11249;52.468;13.776;2022-09-03T08:06:28;3.60;;;1.67;;
22166;SDS011;11249;52.468;13.776;2022-09-03T08:08:59;2.83;;;1.70;;
22166;SDS011;11249;52.468;13.776;2022-09-03T08:11:38;3.75;;;1.95;;
22166;SDS011;11249;52.468;13.776;2022-09-03T08:14:06;5.63;;;1.90;;
22166;SDS011;11249;52.468;13.776;2022-09-03T08:16:39;4.75;;;1.75;;
22166;SDS011;11249;52.468;13.776;2022-09-03T08:19:07;3.75;;;1.80;;
22166;SDS011;11249;52.468;13.776;2022-09-03T08:21:34;6.43;;;1.67;;
22166;SDS011;11249;52.468;13.776;2022-09-03T08:24:01;2.33;;;1.83;;
22166;SDS011;11249;52.468;13.776;2022-09-03T08:26:29;4.22;;;1.67;;
22166;SDS011;11249;52.468;13.776;2022-09-03T08:29:00;6.32;;;2.45;;
22166;SDS011;11249;52.468;13.776;2022-09-03T08:31:29;3.88;;;1.80;;
22166;SDS011;11249;52.468;13.776;2022-09-03T08:33:56;2.85;;;1.58;;
22166;SDS011;11249;52.468;13.776;2022-09-03T08:36:28;3.50;;;1.63;;
22166;SDS011;11249;52.468;13.776;2022-09-03T08:39:00;6.60;;;1.73;;
22166;SDS011;11249;52.468;13.776;2022-09-03T08:44:18;2.22;;;1.60;;
22166;SDS011;11249;52.468;13.776;2022-09-03T08:47:05;5.38;;;1.70;;
22166;SDS011;11249;52.468;13.776;2022-09-03T08:55:25;3.58;;;1.85;;
22166;SDS011;11249;52.468;13.776;2022-09-03T08:57:59;2.80;;;1.73;;
22166;SDS011;11249;52.468;13.776;2022-09-03T09:00:39;4.35;;;1.70;;
22166;SDS011;11249;52.468;13.776;2022-09-03T09:03:32;7.68;;;1.75;;
22166;SDS011;11249;52.468;13.776;2022-09-03T09:17:13;4.05;;;1.83;;
22166;SDS011;11249;52.468;13.776;2022-09-03T09:20:04;4.03;;;1.90;;
22166;SDS011;11249;52.468;13.776;2022-09-03T09:22:53;5.28;;;1.77;;
22166;SDS011;11249;52.468;13.776;2022-09-03T09:25:26;4.32;;;2.00;;
22166;SDS011;11249;52.468;13.776;2022-09-03T09:27:59;3.70;;;1.90;;
22166;SDS011;11249;52.468;13.776;2022-09-03T09:30:38;4.78;;;1.70;;
22166;SDS011;11249;52.468;13.776;2022-09-03T09:33:05;6.25;;;1.70;;
22166;SDS011;11249;52.468;13.776;2022-09-03T09:35:32;5.00;;;1.80;;
22166;SDS011;11249;52.468;13.776;2022-09-03T09:37:59;4.40;;;2.00;;
22166;SDS011;11249;52.468;13.776;2022-09-03T09:43:10;5.43;;;2.40;;
22166;SDS011;11249;52.468;13.776;2022-09-03T09:45:40;3.28;;;1.95;;
22166;SDS011;11249;52.468;13.776;2022-09-03T09:48:20;3.28;;;1.70;;
22166;SDS011;11249;52.468;13.776;2022-09-03T09:51:09;3.83;;;1.67;;
22166;SDS011;11249;52.468;13.776;2022-09-03T09:53:37;5.28;;;1.60;;
22166;SDS011;11249;52.468;13.776;2022-09-03T09:56:05;4.28;;;1.70;;
22166;SDS011;11249;52.468;13.776;2022-09-03T09:58:32;3.78;;;1.80;;
22166;SDS011;11249;52.468;13.776;2022-09-03T10:03:48;5.78;;;1.88;;
22166;SDS011;11249;52.468;13.776;2022-09-03T10:06:23;3.67;;;1.85;;
22166;SDS011;11249;52.468;13.776;2022-09-03T10:09:15;4.00;;;1.77;;
22166;SDS011;11249;52.468;13.776;2022-09-03T10:11:49;2.85;;;1.70;;
22166;SDS011;11249;52.468;13.776;2022-09-03T10:14:46;3.45;;;1.90;;
22166;SDS011;11249;52.468;13.776;2022-09-03T10:17:55;4.85;;;2.00;;
22166;SDS011;11249;52.468;13.776;2022-09-03T10:20:21;2.55;;;1.40;;
22166;SDS011;11249;52.468;13.776;2022-09-03T10:22:53;6.07;;;1.70;;
22166;SDS011;11249;52.468;13.776;2022-09-03T10:28:36;5.97;;;1.70;;
22166;SDS011;11249;52.468;13.776;2022-09-03T10:31:20;2.58;;;1.52;;
22166;SDS011;11249;52.468;13.776;2022-09-03T10:39:12;4.03;;;1.52;;
22166;SDS011;11249;52.468;13.776;2022-09-03T10:41:59;2.10;;;1.30;;
22166;SDS011;11249;52.468;13.776;2022-09-03T10:47:20;1.63;;;1.20;;
22166;SDS011;11249;52.468;13.776;2022-09-03T10:50:09;2.50;;;1.30;;
22166;SDS011;11249;52.468;13.776;2022-09-03T10:52:57;3.97;;;1.27;;
22166;SDS011;11249;52.468;13.776;2022-09-03T11:04:37;6.40;;;1.67;;
22166;SDS011;11249;52.468;13.776;2022-09-03T11:07:16;1.83;;;1.30;;
22166;SDS011;11249;52.468;13.776;2022-09-03T11:10:00;2.65;;;1.60;;
22166;SDS011;11249;52.468;13.776;2022-09-03T11:12:48;2.65;;;1.50;;
22166;SDS011;11249;52.468;13.776;2022-09-03T11:15:32;3.28;;;1.40;;
22166;SDS011;11249;52.468;13.776;2022-09-03T11:18:13;4.50;;;2.05;;
22166;SDS011;11249;52.468;13.776;2022-09-03T11:21:03;2.33;;;1.40;;
22166;SDS011;11249;52.468;13.776;2022-09-03T11:23:39;1.95;;;1.40;;
22166;SDS011;11249;52.468;13.776;2022-09-03T11:26:10;2.95;;;1.20;;
22166;SDS011;11249;52.468;13.776;2022-09-03T11:31:38;1.48;;;1.08;;
22166;SDS011;11249;52.468;13.776;2022-09-03T11:34:28;1.42;;;0.95;;
22166;SDS011;11249;52.468;13.776;2022-09-03T11:42:35;2.00;;;1.17;;
22166;SDS011;11249;52.468;13.776;2022-09-03T11:45:19;2.30;;;1.10;;
22166;SDS011;11249;52.468;13.776;2022-09-03T11:47:52;2.25;;;1.55;;
22166;SDS011;11249;52.468;13.776;2022-09-03T11:50:24;4.28;;;1.30;;
22166;SDS011;11249;52.468;13.776;2022-09-03T11:52:54;1.63;;;1.20;;
22166;SDS011;11249;52.468;13.776;2022-09-03T11:55:48;5.13;;;1.75;;
22166;SDS011;11249;52.468;13.776;2022-09-03T12:00:52;1.85;;;1.10;;
22166;SDS011;11249;52.468;13.776;2022-09-03T12:03:27;4.53;;;1.20;;
22166;SDS011;11249;52.468;13.776;2022-09-03T12:06:41;3.90;;;1.45;;
22166;SDS011;11249;52.468;13.776;2022-09-03T12:09:24;1.95;;;1.25;;
22166;SDS011;11249;52.468;13.776;2022-09-03T12:12:13;3.20;;;1.38;;
22166;SDS011;11249;52.468;13.776;2022-09-03T12:15:15;1.88;;;1.20;;
22166;SDS011;11249;52.468;13.776;2022-09-03T12:18:02;1.20;;;1.10;;
22166;SDS011;11249;52.468;13.776;2022-09-03T12:20:59;2.17;;;1.08;;
22166;SDS011;11249;52.468;13.776;2022-09-03T12:23:28;2.05;;;1.38;;
22166;SDS011;11249;52.468;13.776;2022-09-03T12:25:58;1.63;;;1.35;;
22166;SDS011;11249;52.468;13.776;2022-09-03T12:28:33;2.20;;;1.13;;
22166;SDS011;11249;52.468;13.776;2022-09-03T12:31:13;1.70;;;1.10;;
22166;SDS011;11249;52.468;13.776;2022-09-03T12:34:00;3.60;;;1.05;;
22166;SDS011;11249;52.468;13.776;2022-09-03T12:36:36;1.63;;;1.20;;
22166;SDS011;11249;52.468;13.776;2022-09-03T12:39:08;1.98;;;1.30;;
22166;SDS011;11249;52.468;13.776;2022-09-03T12:41:38;2.58;;;1.10;;
22166;SDS011;11249;52.468;13.776;2022-09-03T12:44:28;3.67;;;1.50;;
22166;SDS011;11249;52.468;13.776;2022-09-03T12:47:11;3.20;;;1.30;;
22166;SDS011;11249;52.468;13.776;2022-09-03T12:50:03;1.95;;;1.05;;
22166;SDS011;11249;52.468;13.776;2022-09-03T12:52:40;5.68;;;1.20;;
22166;SDS011;11249;52.468;13.776;2022-09-03T12:58:13;4.38;;;1.20;;
22166;SDS011;11249;52.468;13.776;2022-09-03T13:00:52;5.93;;;1.42;;
22166;SDS011;11249;52.468;13.776;2022-09-03T13:03:32;2.15;;;1.38;;
22166;SDS011;11249;52.468;13.776;2022-09-03T13:06:13;2.25;;;1.35;;
22166;SDS011;11249;52.468;13.776;2022-09-03T13:08:51;6.88;;;1.23;;
22166;SDS011;11249;52.468;13.776;2022-09-03T13:11:21;2.88;;;1.30;;
22166;SDS011;11249;52.468;13.776;2022-09-03T13:13:51;3.72;;;1.40;;
22166;SDS011;11249;52.468;13.776;2022-09-03T13:19:18;4.50;;;1.20;;
22166;SDS011;11249;52.468;13.776;2022-09-03T13:22:02;2.97;;;1.10;;
22166;SDS011;11249;52.468;13.776;2022-09-03T13:24:59;4.45;;;1.27;;
22166;SDS011;11249;52.468;13.776;2022-09-03T13:30:10;3.67;;;1.15;;
22166;SDS011;11249;52.468;13.776;2022-09-03T13:35:46;4.10;;;1.15;;
22166;SDS011;11249;52.468;13.776;2022-09-03T13:38:26;3.50;;;1.45;;
22166;SDS011;11249;52.468;13.776;2022-09-03T13:43:51;1.65;;;1.20;;
22166;SDS011;11249;52.468;13.776;2022-09-03T13:46:29;2.20;;;1.25;;
22166;SDS011;11249;52.468;13.776;2022-09-03T13:49:11;2.08;;;1.40;;
22166;SDS011;11249;52.468;13.776;2022-09-03T13:52:12;1.15;;;1.05;;
22166;SDS011;11249;52.468;13.776;2022-09-03T13:54:56;3.40;;;1.27;;
22166;SDS011;11249;52.468;13.776;2022-09-03T13:57:40;4.68;;;1.38;;
22166;SDS011;11249;52.468;13.776;2022-09-03T14:00:32;2.20;;;1.50;;
22166;SDS011;11249;52.468;13.776;2022-09-03T14:05:59;2.42;;;1.40;;
22166;SDS011;11249;52.468;13.776;2022-09-03T14:08:34;2.97;;;1.40;;
22166;SDS011;11249;52.468;13.776;2022-09-03T14:17:31;1.30;;;1.20;;
22166;SDS011;11249;52.468;13.776;2022-09-03T14:20:11;4.30;;;1.30;;
22166;SDS011;11249;52.468;13.776;2022-09-03T14:23:02;2.30;;;1.40;;
22166;SDS011;11249;52.468;13.776;2022-09-03T14:25:35;3.92;;;1.70;;
22166;SDS011;11249;52.468;13.776;2022-09-03T14:28:12;2.92;;;1.35;;
22166;SDS011;11249;52.468;13.776;2022-09-03T14:31:01;4.68;;;1.70;;
22166;SDS011;11249;52.468;13.776;2022-09-03T14:33:54;4.93;;;1.65;;
22166;SDS011;11249;52.468;13.776;2022-09-03T14:36:45;2.15;;;1.30;;
22166;SDS011;11249;52.468;13.776;2022-09-03T14:39:53;2.53;;;1.40;;
22166;SDS011;11249;52.468;13.776;2022-09-03T14:42:23;3.90;;;1.30;;
22166;SDS011;11249;52.468;13.776;2022-09-03T14:45:10;1.50;;;1.30;;
22166;SDS011;11249;52.468;13.776;2022-09-03T14:54:00;2.03;;;1.35;;
22166;SDS011;11249;52.468;13.776;2022-09-03T14:56:58;2.92;;;1.50;;
22166;SDS011;11249;52.468;13.776;2022-09-03T15:05:09;2.45;;;1.55;;
22166;SDS011;11249;52.468;13.776;2022-09-03T15:07:58;4.03;;;1.67;;
22166;SDS011;11249;52.468;13.776;2022-09-03T15:10:54;3.58;;;1.60;;
22166;SDS011;11249;52.468;13.776;2022-09-03T15:13:26;7.10;;;1.95;;
22166;SDS011;11249;52.468;13.776;2022-09-03T15:16:11;3.00;;;1.90;;
22166;SDS011;11249;52.468;13.776;2022-09-03T15:19:08;2.42;;;1.83;;
22166;SDS011;11249;52.468;13.776;2022-09-03T15:24:52;1.95;;;1.58;;
22166;SDS011;11249;52.468;13.776;2022-09-03T15:30:11;2.97;;;1.70;;
22166;SDS011;11249;52.468;13.776;2022-09-03T15:44:16;2.58;;;1.58;;
22166;SDS011;11249;52.468;13.776;2022-09-03T15:46:58;2.97;;;1.67;;
22166;SDS011;11249;52.468;13.776;2022-09-03T15:49:44;3.03;;;1.83;;
22166;SDS011;11249;52.468;13.776;2022-09-03T15:52:31;3.83;;;2.00;;
22166;SDS011;11249;52.468;13.776;2022-09-03T15:55:32;3.08;;;1.67;;
22166;SDS011;11249;52.468;13.776;2022-09-03T15:58:05;3.38;;;1.75;;
22166;SDS011;11249;52.468;13.776;2022-09-03T16:00:50;6.38;;;2.22;;
22166;SDS011;11249;52.468;13.776;2022-09-03T16:03:33;5.72;;;1.75;;
22166;SDS011;11249;52.468;13.776;2022-09-03T16:06:17;4.07;;;1.80;;
22166;SDS011;11249;52.468;13.776;2022-09-03T16:09:00;3.92;;;1.60;;
22166;SDS011;11249;52.468;13.776;2022-09-03T16:14:20;4.78;;;2.15;;
22166;SDS011;11249;52.468;13.776;2022-09-03T16:16:58;4.18;;;2.17;;
22166;SDS011;11249;52.468;13.776;2022-09-03T16:19:45;3.70;;;2.10;;
22166;SDS011;11249;52.468;13.776;2022-09-03T16:22:48;4.03;;;2.25;;
22166;SDS011;11249;52.468;13.776;2022-09-03T16:25:25;2.30;;;1.90;;
22166;SDS011;11249;52.468;13.776;2022-09-03T16:28:17;5.68;;;2.30;;
22166;SDS011;11249;52.468;13.776;2022-09-03T16:31:50;3.83;;;2.22;;
22166;SDS011;11249;52.468;13.776;2022-09-03T16:37:00;4.55;;;2.45;;
22166;SDS011;11249;52.468;13.776;2022-09-03T16:42:42;2.28;;;1.75;;
22166;SDS011;11249;52.468;13.776;2022-09-03T16:45:54;3.33;;;2.08;;
22166;SDS011;11249;52.468;13.776;2022-09-03T16:48:39;3.47;;;2.40;;
22166;SDS011;11249;52.468;13.776;2022-09-03T16:54:05;4.97;;;2.88;;
22166;SDS011;11249;52.468;13.776;2022-09-03T16:57:01;5.35;;;2.20;;
22166;SDS011;11249;52.468;13.776;2022-09-03T17:00:04;7.03;;;2.28;;
22166;SDS011;11249;52.468;13.776;2022-09-03T17:03:12;4.65;;;2.05;;
22166;SDS011;11249;52.468;13.776;2022-09-03T17:05:57;3.17;;;2.03;;
22166;SDS011;11249;52.468;13.776;2022-09-03T17:08:50;4.03;;;2.38;;
22166;SDS011;11249;52.468;13.776;2022-09-03T17:14:43;6.22;;;2.75;;
22166;SDS011;11249;52.468;13.776;2022-09-03T17:17:22;4.25;;;2.40;;
22166;SDS011;11249;52.468;13.776;2022-09-03T17:20:26;5.25;;;2.15;;
22166;SDS011;11249;52.468;13.776;2022-09-03T17:23:01;5.75;;;2.20;;
22166;SDS011;11249;52.468;13.776;2022-09-03T17:25:34;4.65;;;2.15;;
22166;SDS011;11249;52.468;13.776;2022-09-03T17:31:25;5.43;;;2.33;;
22166;SDS011;11249;52.468;13.776;2022-09-03T17:34:24;6.75;;;2.17;;
22166;SDS011;11249;52.468;13.776;2022-09-03T17:40:06;3.60;;;2.15;;
22166;SDS011;11249;52.468;13.776;2022-09-03T17:48:24;2.65;;;1.92;;
22166;SDS011;11249;52.468;13.776;2022-09-03T17:51:11;3.38;;;1.95;;
22166;SDS011;11249;52.468;13.776;2022-09-03T17:53:51;3.13;;;2.22;;
22166;SDS011;11249;52.468;13.776;2022-09-03T17:56:29;5.05;;;2.63;;
22166;SDS011;11249;52.468;13.776;2022-09-03T18:02:21;4.25;;;2.28;;
22166;SDS011;11249;52.468;13.776;2022-09-03T18:05:17;3.17;;;2.40;;
22166;SDS011;11249;52.468;13.776;2022-09-03T18:10:31;3.90;;;2.17;;
22166;SDS011;11249;52.468;13.776;2022-09-03T18:13:23;4.93;;;2.30;;